Time;durP1;ratioP1;P1;durP2;ratioP2;P2;SDS_P1;SDS_P2;PMS_P1;PMS_P2;Temp;Humidity;BMP_temperature;BMP_pressure;BME280_temperature;BME280_humidity;BME280_pressure;Samples;Min_cycle;Max_cycle;Signal;HPM_P1;HPM_P2
2022/05/17 00:02:05;;;;;;;7.50;5.40;;;20.60;99.90;;;;;;5093474;28;20201;-73
2022/05/17 00:04:32;;;;;;;11.77;5.38;;;20.60;99.90;;;;;;5093090;28;20257;-73
2022/05/17 00:06:59;;;;;;;10.00;4.63;;;20.60;99.90;;;;;;5093580;28;20198;-72
2022/05/17 00:09:26;;;;;;;7.97;5.30;;;20.60;99.90;;;;;;5093205;28;20239;-72
2022/05/17 00:11:53;;;;;;;9.27;4.85;;;20.60;99.90;;;;;;5093634;28;20587;-72
2022/05/17 00:14:20;;;;;;;15.20;6.65;;;20.50;99.90;;;;;;5093778;28;20201;-72
2022/05/17 00:16:47;;;;;;;6.10;4.97;;;20.50;99.90;;;;;;5092857;28;20585;-72
2022/05/17 00:19:20;;;;;;;10.50;6.50;;;20.50;99.90;;;;;;5093172;28;20201;-72
2022/05/17 00:21:47;;;;;;;10.75;5.43;;;20.40;99.90;;;;;;5092849;28;20205;-72
2022/05/17 00:24:16;;;;;;;10.32;5.60;;;20.40;99.90;;;;;;5093338;28;20233;-72
2022/05/17 00:26:43;;;;;;;7.07;5.13;;;20.30;99.90;;;;;;5092660;28;20231;-72
2022/05/17 00:29:10;;;;;;;9.18;4.97;;;20.30;99.90;;;;;;5093028;28;20255;-72
2022/05/17 00:31:37;;;;;;;14.90;5.63;;;20.30;99.90;;;;;;5092834;28;20265;-72
2022/05/17 00:34:05;;;;;;;8.40;4.65;;;20.30;99.90;;;;;;5092865;28;20210;-72
2022/05/17 00:36:34;;;;;;;5.97;5.38;;;20.20;99.90;;;;;;5092435;28;20198;-73
2022/05/17 00:39:01;;;;;;;10.93;6.30;;;20.20;99.90;;;;;;5093119;28;20310;-72
2022/05/17 00:41:29;;;;;;;11.65;5.07;;;20.10;99.90;;;;;;5092396;28;20201;-73
2022/05/17 00:46:47;;;;;;;10.07;6.50;;;20.00;99.90;;;;;;5091258;28;20699;-72
2022/05/17 00:49:21;;;;;;;9.88;5.43;;;20.00;99.90;;;;;;5092603;28;20668;-72
2022/05/17 00:51:49;;;;;;;6.85;4.80;;;20.00;99.90;;;;;;5092543;28;20212;-72
2022/05/17 00:54:19;;;;;;;9.93;4.60;;;20.00;99.90;;;;;;5092872;28;20210;-72
2022/05/17 00:56:52;;;;;;;9.65;5.05;;;20.00;99.90;;;;;;5092311;28;20206;-72
2022/05/17 00:59:19;;;;;;;8.73;5.10;;;20.00;99.90;;;;;;5092852;28;20631;-72
2022/05/17 01:01:46;;;;;;;7.78;5.07;;;19.90;99.90;;;;;;5091658;28;20205;-72
2022/05/17 01:04:17;;;;;;;8.18;3.92;;;19.90;99.90;;;;;;5092499;28;20731;-72
2022/05/17 01:06:48;;;;;;;7.10;4.45;;;19.90;99.90;;;;;;5091881;28;20621;-72
2022/05/17 01:09:16;;;;;;;7.53;4.75;;;19.80;99.90;;;;;;5092414;28;20251;-72
2022/05/17 01:11:43;;;;;;;4.80;4.22;;;19.80;99.90;;;;;;5091896;28;20558;-72
2022/05/17 01:16:56;;;;;;;5.38;4.65;;;19.70;99.90;;;;;;5092119;28;20254;-71
2022/05/17 01:19:23;;;;;;;7.82;4.85;;;19.70;99.90;;;;;;5092181;28;20661;-71
2022/05/17 01:21:52;;;;;;;10.73;4.43;;;19.70;99.90;;;;;;5092400;28;20202;-72
2022/05/17 01:24:19;;;;;;;6.32;3.78;;;19.70;99.90;;;;;;5092157;28;20233;-72
2022/05/17 01:26:52;;;;;;;8.10;5.10;;;19.70;99.90;;;;;;5091760;28;20205;-72
2022/05/17 01:29:19;;;;;;;7.72;4.72;;;19.60;99.90;;;;;;5092119;28;20660;-72
2022/05/17 01:31:48;;;;;;;8.00;4.68;;;19.70;99.90;;;;;;5091215;28;20247;-73
2022/05/17 01:34:15;;;;;;;10.65;4.93;;;19.70;99.90;;;;;;5092053;28;20637;-72
2022/05/17 01:36:43;;;;;;;9.63;5.20;;;19.60;99.90;;;;;;5091130;28;20673;-72
2022/05/17 01:39:11;;;;;;;8.15;5.38;;;19.60;99.90;;;;;;5091972;28;20208;-72
2022/05/17 01:41:38;;;;;;;10.93;4.47;;;19.60;99.90;;;;;;5091447;28;20284;-72
2022/05/17 01:44:06;;;;;;;19.42;6.13;;;19.50;99.90;;;;;;5091762;28;20269;-72
2022/05/17 01:46:32;;;;;;;9.55;5.40;;;19.50;99.90;;;;;;5090981;28;20251;-73
2022/05/17 01:48:59;;;;;;;6.63;4.70;;;19.50;99.90;;;;;;5091343;28;20213;-73
2022/05/17 01:51:27;;;;;;;7.85;4.03;;;19.50;99.90;;;;;;5091247;28;20205;-73
2022/05/17 01:53:53;;;;;;;10.75;4.50;;;19.40;99.90;;;;;;5091425;28;20661;-73
2022/05/17 01:56:22;;;;;;;21.35;5.70;;;19.40;99.90;;;;;;5091734;28;20627;-73
2022/05/17 01:58:49;;;;;;;5.70;4.43;;;19.40;99.90;;;;;;5091326;28;20209;-72
2022/05/17 02:01:16;;;;;;;8.32;5.18;;;19.30;99.90;;;;;;5090961;28;20242;-73
2022/05/17 02:03:43;;;;;;;7.82;4.97;;;19.20;99.90;;;;;;5090873;28;20233;-73
2022/05/17 02:06:10;;;;;;;9.70;5.47;;;19.20;99.90;;;;;;5091274;28;20254;-73
2022/05/17 02:08:36;;;;;;;8.63;4.82;;;19.30;99.90;;;;;;5091045;28;20201;-73
2022/05/17 02:11:04;;;;;;;5.63;4.30;;;19.30;99.90;;;;;;5091507;28;20258;-73
2022/05/17 02:13:33;;;;;;;10.68;5.43;;;19.40;99.90;;;;;;5090642;28;20610;-73
2022/05/17 02:16:00;;;;;;;9.63;4.93;;;19.40;99.90;;;;;;5085413;28;20269;-72
2022/05/17 02:18:27;;;;;;;11.60;5.32;;;19.20;99.90;;;;;;5070363;28;20203;-73
2022/05/17 02:20:54;;;;;;;11.13;4.68;;;19.20;99.90;;;;;;5070808;28;20229;-73
2022/05/17 02:23:21;;;;;;;9.88;5.80;;;19.20;99.90;;;;;;5071105;28;20226;-73
2022/05/17 02:25:48;;;;;;;9.15;5.70;;;19.30;99.90;;;;;;5070420;28;20228;-73
2022/05/17 02:28:15;;;;;;;8.23;4.88;;;19.30;99.90;;;;;;5071104;28;20259;-73
2022/05/17 02:30:44;;;;;;;9.75;4.78;;;19.20;99.90;;;;;;5070397;28;20210;-73
2022/05/17 02:33:12;;;;;;;8.45;5.35;;;19.20;99.90;;;;;;5070975;28;20263;-73
2022/05/17 02:35:40;;;;;;;8.43;5.22;;;19.30;99.90;;;;;;5070326;28;20259;-73
2022/05/17 02:38:07;;;;;;;8.85;5.95;;;19.20;99.90;;;;;;5070731;28;20202;-73
2022/05/17 02:40:35;;;;;;;6.07;5.47;;;19.20;99.90;;;;;;5070392;28;20256;-73
2022/05/17 02:43:02;;;;;;;11.23;6.50;;;19.10;99.90;;;;;;5070463;28;20285;-73
2022/05/17 02:45:29;;;;;;;7.35;5.40;;;19.20;99.90;;;;;;5069975;28;20643;-73
2022/05/17 02:47:58;;;;;;;9.63;5.55;;;19.20;99.90;;;;;;5070771;28;20198;-74
2022/05/17 02:50:25;;;;;;;11.57;5.88;;;19.10;99.90;;;;;;5069989;28;20210;-73
2022/05/17 02:52:52;;;;;;;7.50;4.75;;;19.10;99.90;;;;;;5070968;28;20239;-73
2022/05/17 02:55:19;;;;;;;6.95;4.88;;;19.10;99.90;;;;;;5071011;28;20206;-73
2022/05/17 02:57:46;;;;;;;11.32;6.15;;;19.00;99.90;;;;;;5070040;28;20198;-73
2022/05/17 03:00:16;;;;;;;10.20;5.60;;;18.90;99.90;;;;;;5070364;28;20210;-73
2022/05/17 03:02:44;;;;;;;7.70;5.32;;;18.90;99.90;;;;;;5070350;28;20214;-73
2022/05/17 03:05:14;;;;;;;8.55;5.40;;;18.90;99.90;;;;;;5070572;28;20281;-73
2022/05/17 03:07:41;;;;;;;13.35;5.70;;;18.90;99.90;;;;;;5069958;28;20202;-73
2022/05/17 03:10:09;;;;;;;9.55;5.68;;;18.90;99.90;;;;;;5071777;28;20202;-73
2022/05/17 03:12:37;;;;;;;10.60;6.65;;;18.90;99.90;;;;;;5073643;28;20202;-73
2022/05/17 03:15:04;;;;;;;6.75;5.15;;;18.90;99.90;;;;;;5074525;28;20206;-73
2022/05/17 03:17:31;;;;;;;12.38;5.30;;;18.90;99.90;;;;;;5074034;28;20202;-73
2022/05/17 03:19:58;;;;;;;8.68;5.78;;;18.80;99.90;;;;;;5074104;28;20240;-73
2022/05/17 03:22:27;;;;;;;10.68;5.38;;;18.70;99.90;;;;;;5073855;28;20706;-73
2022/05/17 03:24:54;;;;;;;9.18;5.80;;;18.70;99.90;;;;;;5073884;28;20285;-73
2022/05/17 03:27:21;;;;;;;9.00;5.00;;;18.70;99.90;;;;;;5074133;28;20204;-73
2022/05/17 03:29:48;;;;;;;8.95;5.38;;;18.70;99.90;;;;;;5073803;28;20206;-73
2022/05/17 03:32:15;;;;;;;8.43;5.75;;;18.70;99.90;;;;;;5073826;28;20202;-74
2022/05/17 03:34:42;;;;;;;12.93;5.68;;;18.70;99.90;;;;;;5073518;28;20719;-73
2022/05/17 03:37:09;;;;;;;6.85;5.28;;;18.70;99.90;;;;;;5073756;28;20259;-73
2022/05/17 03:39:38;;;;;;;8.65;6.28;;;18.60;99.90;;;;;;5073363;28;20202;-73
2022/05/17 03:42:09;;;;;;;7.47;5.95;;;18.60;99.90;;;;;;5073570;28;20210;-73
2022/05/17 03:44:36;;;;;;;7.95;5.93;;;18.60;99.90;;;;;;5073311;28;20237;-72
2022/05/17 03:47:05;;;;;;;9.00;5.57;;;18.60;99.90;;;;;;5073883;28;20202;-73
2022/05/17 03:49:32;;;;;;;7.10;5.50;;;18.70;99.90;;;;;;5073099;28;20336;-73
2022/05/17 03:51:59;;;;;;;6.22;5.43;;;18.60;99.90;;;;;;5073561;28;20259;-73
2022/05/17 03:54:26;;;;;;;8.85;5.20;;;18.60;99.90;;;;;;5073150;28;20267;-73
2022/05/17 03:56:54;;;;;;;12.70;7.95;;;18.50;99.90;;;;;;5073682;28;20263;-73
2022/05/17 03:59:21;;;;;;;7.63;6.93;;;18.50;99.90;;;;;;5073688;28;20659;-73
2022/05/17 04:01:48;;;;;;;13.52;6.93;;;18.60;99.90;;;;;;5073079;28;20198;-73
2022/05/17 04:04:15;;;;;;;7.45;6.22;;;18.60;99.90;;;;;;5073332;28;20709;-72
2022/05/17 04:06:42;;;;;;;6.45;5.80;;;18.50;99.90;;;;;;5072842;28;20198;-73
2022/05/17 04:09:10;;;;;;;8.55;5.68;;;18.50;99.90;;;;;;5073302;28;20198;-73
2022/05/17 04:11:37;;;;;;;9.23;5.70;;;18.50;99.90;;;;;;5072799;28;20202;-73
2022/05/17 04:14:06;;;;;;;7.28;4.72;;;18.40;99.90;;;;;;5073011;28;20241;-73
2022/05/17 04:16:33;;;;;;;10.48;5.82;;;18.40;99.90;;;;;;5072655;28;20206;-73
2022/05/17 04:19:00;;;;;;;12.15;5.72;;;18.50;99.90;;;;;;5073120;28;20206;-73
2022/05/17 04:21:28;;;;;;;14.55;6.93;;;18.40;99.90;;;;;;5072543;28;20202;-73
2022/05/17 04:23:54;;;;;;;6.50;5.05;;;18.40;99.90;;;;;;5072607;28;20234;-73
2022/05/17 04:26:21;;;;;;;9.20;5.97;;;18.40;99.90;;;;;;5073356;28;20202;-73
2022/05/17 04:28:48;;;;;;;11.05;5.35;;;18.40;99.90;;;;;;5072874;28;20239;-73
2022/05/17 04:31:17;;;;;;;8.27;5.88;;;18.40;99.90;;;;;;5072971;28;20202;-73
2022/05/17 04:33:44;;;;;;;5.95;5.35;;;18.30;99.90;;;;;;5072335;28;20206;-72
2022/05/17 04:36:11;;;;;;;10.68;5.85;;;18.20;99.90;;;;;;5073132;28;20674;-72
2022/05/17 04:38:39;;;;;;;10.23;5.65;;;18.20;99.90;;;;;;5071863;28;20766;-72
2022/05/17 04:41:06;;;;;;;7.63;4.88;;;18.10;99.90;;;;;;5072079;28;20267;-73
2022/05/17 04:43:33;;;;;;;10.00;6.05;;;18.10;99.90;;;;;;5072234;28;20248;-73
2022/05/17 04:46:00;;;;;;;7.05;5.75;;;18.10;99.90;;;;;;5076706;28;20210;-73
2022/05/17 04:48:29;;;;;;;10.50;5.50;;;18.20;99.90;;;;;;5073277;28;20202;-73
2022/05/17 04:50:56;;;;;;;8.63;5.68;;;18.20;99.90;;;;;;5086558;28;20289;-73
2022/05/17 04:53:23;;;;;;;7.95;6.07;;;18.30;99.90;;;;;;5076852;28;20198;-72
2022/05/17 04:55:50;;;;;;;9.40;5.65;;;18.30;99.90;;;;;;5093208;28;20216;-73
2022/05/17 04:58:19;;;;;;;8.52;5.88;;;18.30;99.90;;;;;;5091738;28;20205;-72
2022/05/17 05:00:46;;;;;;;11.77;6.13;;;18.20;99.90;;;;;;5091350;28;20590;-72
2022/05/17 05:03:13;;;;;;;7.90;6.25;;;18.20;99.90;;;;;;5090235;28;20269;-72
2022/05/17 05:05:41;;;;;;;8.15;5.20;;;18.10;99.90;;;;;;5084554;28;20241;-72
2022/05/17 05:08:08;;;;;;;9.70;5.47;;;18.20;99.90;;;;;;5081757;28;20628;-72
2022/05/17 05:10:35;;;;;;;9.00;5.78;;;18.20;99.90;;;;;;5084944;28;20209;-72
2022/05/17 05:13:03;;;;;;;7.65;5.38;;;18.10;99.90;;;;;;5075956;28;20252;-72
2022/05/17 05:15:31;;;;;;;6.43;5.22;;;18.10;99.90;;;;;;5078072;28;20554;-74
2022/05/17 05:17:58;;;;;;;7.47;6.78;;;18.10;99.90;;;;;;5089110;28;20731;-72
2022/05/17 05:20:25;;;;;;;9.35;5.63;;;18.10;99.90;;;;;;5078332;28;20263;-73
2022/05/17 05:22:54;;;;;;;9.10;5.45;;;18.20;99.90;;;;;;5086919;28;20329;-72
2022/05/17 05:25:22;;;;;;;11.60;6.32;;;18.10;99.90;;;;;;5092251;28;20312;-73
2022/05/17 05:27:49;;;;;;;6.53;5.75;;;18.20;99.90;;;;;;5086310;28;20206;-73
2022/05/17 05:30:18;;;;;;;13.35;5.60;;;18.20;99.90;;;;;;5091612;28;20538;-73
2022/05/17 05:32:48;;;;;;;7.55;4.70;;;18.40;99.90;;;;;;5079748;28;20847;-70
2022/05/17 05:35:16;;;;;;;7.63;5.65;;;18.40;99.90;;;;;;5078755;28;20202;-71
2022/05/17 05:37:43;;;;;;;9.52;5.68;;;18.40;99.90;;;;;;5075025;28;20678;-70
2022/05/17 05:40:12;;;;;;;10.15;5.75;;;18.60;99.90;;;;;;5081690;28;20206;-70
2022/05/17 05:42:40;;;;;;;7.47;5.18;;;18.60;99.90;;;;;;5090783;28;20253;-71
2022/05/17 05:45:09;;;;;;;4.93;4.40;;;18.70;99.90;;;;;;5090220;28;20229;-73
2022/05/17 05:47:37;;;;;;;7.28;5.60;;;18.70;99.90;;;;;;5090655;28;20558;-72
2022/05/17 05:50:05;;;;;;;11.07;6.00;;;18.80;99.90;;;;;;5081999;28;20267;-72
2022/05/17 05:52:32;;;;;;;9.68;5.25;;;18.90;99.90;;;;;;5090590;28;20724;-75
2022/05/17 05:55:01;;;;;;;13.82;5.35;;;18.90;99.90;;;;;;5090993;28;20209;-72
2022/05/17 05:57:29;;;;;;;11.68;6.28;;;19.00;99.90;;;;;;5086495;28;20256;-71
2022/05/17 05:59:57;;;;;;;5.80;5.22;;;19.10;99.90;;;;;;5084703;28;20310;-73
2022/05/17 06:02:24;;;;;;;7.07;4.45;;;19.10;99.90;;;;;;5091085;28;20653;-71
2022/05/17 06:04:51;;;;;;;6.95;5.75;;;19.10;99.90;;;;;;5091523;28;20233;-74
2022/05/17 06:07:18;;;;;;;10.43;6.03;;;19.20;99.90;;;;;;5091268;28;20197;-70
2022/05/17 06:09:45;;;;;;;5.80;5.07;;;19.20;99.90;;;;;;5081306;28;20210;-77
2022/05/17 06:12:12;;;;;;;10.88;5.50;;;19.30;99.90;;;;;;5090315;28;20270;-77
2022/05/17 06:14:41;;;;;;;12.13;6.65;;;19.30;99.90;;;;;;5081642;28;20283;-77
2022/05/17 06:17:08;;;;;;;8.48;6.28;;;19.40;99.90;;;;;;5075690;28;20728;-71
2022/05/17 06:19:35;;;;;;;11.77;5.53;;;19.60;99.90;;;;;;5090029;28;20239;-70
2022/05/17 06:22:02;;;;;;;8.32;5.72;;;19.70;99.90;;;;;;5085287;28;20678;-71
2022/05/17 06:24:29;;;;;;;11.70;6.18;;;19.70;99.90;;;;;;5071372;28;20765;-72
2022/05/17 06:26:56;;;;;;;12.43;6.80;;;19.80;99.90;;;;;;5071052;28;20214;-71
2022/05/17 06:29:23;;;;;;;11.48;5.80;;;20.00;99.90;;;;;;5087189;28;20213;-74
2022/05/17 06:31:51;;;;;;;9.05;5.70;;;20.20;99.90;;;;;;5091373;28;20208;-71
2022/05/17 06:34:18;;;;;;;9.38;5.63;;;20.20;99.90;;;;;;5075130;28;20205;-72
2022/05/17 06:36:45;;;;;;;8.90;4.88;;;20.30;99.90;;;;;;5069855;28;20206;-70
2022/05/17 06:39:12;;;;;;;9.43;5.85;;;20.30;99.90;;;;;;5077551;28;20273;-71
2022/05/17 06:41:39;;;;;;;9.13;5.70;;;20.30;99.90;;;;;;5090609;28;20201;-74
2022/05/17 06:44:06;;;;;;;9.63;5.53;;;20.40;99.90;;;;;;5089380;28;20201;-72
2022/05/17 06:46:33;;;;;;;10.90;5.60;;;20.60;99.90;;;;;;5082408;28;20240;-71
2022/05/17 06:49:02;;;;;;;10.23;5.20;;;20.70;99.90;;;;;;5085830;28;20654;-74
2022/05/17 06:51:29;;;;;;;8.00;5.30;;;20.80;99.90;;;;;;5087057;28;20726;-73
2022/05/17 06:53:56;;;;;;;9.63;6.30;;;20.90;99.90;;;;;;5094377;28;20221;-72
2022/05/17 06:56:23;;;;;;;7.45;6.10;;;21.00;99.90;;;;;;5086177;28;20198;-72
2022/05/17 06:58:50;;;;;;;13.32;6.35;;;21.30;99.90;;;;;;5089203;28;20293;-68
2022/05/17 07:01:17;;;;;;;14.05;6.60;;;21.20;99.90;;;;;;5086954;28;20205;-73
2022/05/17 07:03:44;;;;;;;7.70;5.53;;;21.30;99.90;;;;;;5086447;28;20209;-71
2022/05/17 07:06:12;;;;;;;10.07;5.97;;;21.00;99.90;;;;;;5091900;28;20282;-71
2022/05/17 07:08:39;;;;;;;11.05;4.95;;;21.30;99.90;;;;;;5094255;28;20278;-72
2022/05/17 07:13:51;;;;;;;7.05;5.18;;;21.60;99.90;;;;;;5091556;28;20205;-72
2022/05/17 07:16:18;;;;;;;8.52;5.25;;;21.70;99.90;;;;;;5094527;28;20232;-71
2022/05/17 07:18:47;;;;;;;12.77;5.43;;;21.90;99.90;;;;;;5087366;28;20214;-71
2022/05/17 07:21:16;;;;;;;10.02;5.43;;;22.00;99.90;;;;;;5087361;28;20202;-73
2022/05/17 07:23:43;;;;;;;7.50;5.25;;;22.40;99.90;;;;;;5080634;28;20209;-71
2022/05/17 07:26:11;;;;;;;8.90;5.40;;;22.30;99.90;;;;;;5093807;28;20294;-70
2022/05/17 07:28:40;;;;;;;7.85;5.05;;;22.50;99.90;;;;;;5093864;28;20254;-71
2022/05/17 07:31:07;;;;;;;12.13;5.15;;;22.60;99.90;;;;;;5093513;28;20246;-71
2022/05/17 07:33:34;;;;;;;9.90;5.15;;;22.60;99.90;;;;;;5086435;28;20255;-73
2022/05/17 07:36:02;;;;;;;15.13;5.72;;;22.60;99.90;;;;;;5082446;28;20688;-72
2022/05/17 07:38:31;;;;;;;8.75;5.05;;;22.70;99.90;;;;;;5084135;28;20202;-73
2022/05/17 07:40:58;;;;;;;10.02;4.38;;;22.90;99.90;;;;;;5085091;28;20201;-70
2022/05/17 07:43:25;;;;;;;9.27;5.57;;;23.00;99.90;;;;;;5091822;28;20630;-70
2022/05/17 07:45:52;;;;;;;7.95;4.60;;;23.10;99.90;;;;;;5094197;28;20287;-74
2022/05/17 07:48:20;;;;;;;8.23;5.78;;;23.20;99.90;;;;;;5083826;28;20206;-73
2022/05/17 07:50:47;;;;;;;11.13;5.22;;;23.20;99.90;;;;;;5080792;28;20218;-72
2022/05/17 07:53:16;;;;;;;7.80;4.45;;;23.20;99.90;;;;;;5078732;28;20275;-73
2022/05/17 07:55:46;;;;;;;7.85;5.03;;;23.40;99.90;;;;;;5083454;28;20270;-74
2022/05/17 07:58:14;;;;;;;8.32;4.95;;;23.20;99.90;;;;;;5092689;28;20254;-73
2022/05/17 08:00:42;;;;;;;8.15;4.50;;;23.20;99.90;;;;;;5085012;28;20628;-73
2022/05/17 08:03:10;;;;;;;8.35;5.15;;;23.50;99.90;;;;;;5073230;28;20627;-74
2022/05/17 08:05:38;;;;;;;8.55;4.43;;;23.70;99.90;;;;;;5078663;28;20240;-75
2022/05/17 08:08:05;;;;;;;16.40;6.07;;;23.10;99.90;;;;;;5093605;28;20206;-72
2022/05/17 08:10:32;;;;;;;10.15;5.68;;;23.40;99.90;;;;;;5092182;28;20275;-72
2022/05/17 08:13:01;;;;;;;19.25;5.55;;;23.80;99.90;;;;;;5081627;28;20217;-71
2022/05/17 08:15:30;;;;;;;5.50;4.53;;;24.10;99.90;;;;;;5088177;28;20216;-71
2022/05/17 08:17:58;;;;;;;5.45;4.45;;;23.90;99.90;;;;;;5072778;28;20666;-73
2022/05/17 08:20:25;;;;;;;11.52;5.32;;;24.10;99.90;;;;;;5073749;28;20202;-72
2022/05/17 08:22:52;;;;;;;10.60;6.10;;;24.10;99.90;;;;;;5093530;28;20209;-72
2022/05/17 08:28:07;;;;;;;6.40;4.50;;;24.60;99.90;;;;;;5079910;28;20232;-73
2022/05/17 08:30:36;;;;;;;5.72;4.32;;;24.70;99.90;;;;;;5073858;28;20727;-74
2022/05/17 08:33:17;;;;;;;5.97;3.83;;;24.60;99.90;;;;;;5072645;28;20275;-73
2022/05/17 08:35:47;;;;;;;6.25;4.57;;;24.60;99.90;;;;;;5072420;28;20260;-73
2022/05/17 08:38:19;;;;;;;6.68;4.55;;;24.50;99.90;;;;;;5072574;28;20617;-72
2022/05/17 08:40:58;;;;;;;6.75;4.10;;;24.70;99.90;;;;;;5072246;28;20233;-72
2022/05/17 08:43:30;;;;;;;4.82;4.30;;;24.60;99.90;;;;;;5072310;28;20251;-72
2022/05/17 08:46:08;;;;;;;6.07;4.35;;;24.70;99.90;;;;;;5072245;28;20241;-72
2022/05/17 08:48:43;;;;;;;4.88;3.70;;;25.10;99.90;;;;;;5072027;28;20289;-72
2022/05/17 08:51:14;;;;;;;8.27;3.30;;;25.10;99.90;;;;;;5072269;28;20726;-73
2022/05/17 08:53:43;;;;;;;6.50;3.80;;;25.30;99.90;;;;;;5072134;28;20259;-73
2022/05/17 08:56:11;;;;;;;7.57;4.72;;;25.60;99.90;;;;;;5072306;28;20202;-73
2022/05/17 08:58:41;;;;;;;7.05;3.63;;;25.70;99.90;;;;;;5071914;28;20198;-73
2022/05/17 09:01:21;;;;;;;7.13;4.78;;;25.80;99.90;;;;;;5071977;28;20666;-72
2022/05/17 09:04:07;;;;;;;7.60;3.85;;;26.20;99.90;;;;;;5072134;28;20209;-73
2022/05/17 09:06:44;;;;;;;7.68;3.65;;;26.60;99.90;;;;;;5077139;28;20713;-72
2022/05/17 09:09:17;;;;;;;11.07;7.47;;;26.60;99.90;;;;;;5083823;28;20209;-72
2022/05/17 09:11:48;;;;;;;8.32;3.97;;;27.30;99.90;;;;;;5089060;28;20579;-71
2022/05/17 09:14:19;;;;;;;8.00;3.90;;;28.10;99.90;;;;;;5075053;28;20250;-71
2022/05/17 09:16:49;;;;;;;5.95;3.25;;;28.80;99.90;;;;;;5082093;28;20209;-73
2022/05/17 09:19:16;;;;;;;5.53;3.90;;;27.60;99.90;;;;;;5092091;28;20201;-73
2022/05/17 09:21:45;;;;;;;9.30;3.97;;;27.60;99.90;;;;;;5085981;28;20256;-72
2022/05/17 09:24:15;;;;;;;6.70;3.50;;;28.10;99.90;;;;;;5078920;28;20289;-72
2022/05/17 09:26:50;;;;;;;5.30;3.30;;;28.90;99.90;;;;;;5071832;28;20726;-72
2022/05/17 09:29:22;;;;;;;6.88;3.10;;;30.00;99.90;;;;;;5071454;28;20590;-72
2022/05/17 09:31:53;;;;;;;8.00;3.60;;;29.90;99.90;;;;;;5083985;28;20251;-73
2022/05/17 09:34:29;;;;;;;7.63;3.85;;;30.10;99.90;;;;;;5091926;28;20208;-73
2022/05/17 09:37:00;;;;;;;8.05;3.13;;;30.20;99.90;;;;;;5091567;28;20215;-73
2022/05/17 09:39:27;;;;;;;7.20;3.60;;;31.30;99.90;;;;;;5091384;28;20201;-73
2022/05/17 09:41:57;;;;;;;8.73;4.25;;;32.10;99.90;;;;;;5091665;28;20682;-72
2022/05/17 09:44:29;;;;;;;5.05;3.72;;;32.10;99.90;;;;;;5091423;28;20201;-73
2022/05/17 09:47:00;;;;;;;10.93;3.78;;;33.80;99.90;;;;;;5091152;28;20357;-73
2022/05/17 09:52:38;;;;;;;9.65;4.90;;;30.50;99.90;;;;;;5076685;28;20695;-72
2022/05/17 09:55:24;;;;;;;6.75;3.00;;;31.30;99.90;;;;;;5075915;28;20300;-72
2022/05/17 09:57:58;;;;;;;6.57;4.15;;;32.60;99.90;;;;;;5071071;28;20542;-74
2022/05/17 10:00:31;;;;;;;6.18;4.43;;;33.80;99.90;;;;;;5070630;28;20238;-73
2022/05/17 10:03:01;;;;;;;5.93;4.00;;;31.10;99.90;;;;;;5070883;28;20240;-73
2022/05/17 10:05:43;;;;;;;5.47;3.47;;;32.30;99.90;;;;;;5087121;28;20669;-74
2022/05/17 10:08:29;;;;;;;6.93;3.28;;;32.00;99.90;;;;;;5091227;28;20201;-72
2022/05/17 10:11:06;;;;;;;5.15;3.65;;;33.40;99.90;;;;;;5091129;28;20205;-72
2022/05/17 10:13:36;;;;;;;6.20;3.28;;;33.90;99.90;;;;;;5081792;28;20213;-72
2022/05/17 10:16:11;;;;;;;9.50;4.30;;;33.80;99.90;;;;;;5070882;28;20303;-74
2022/05/17 10:18:44;;;;;;;4.75;3.55;;;33.50;99.90;;;;;;5070433;28;20613;-72
2022/05/17 10:21:15;;;;;;;6.38;4.45;;;35.00;99.90;;;;;;5070935;28;20205;-73
2022/05/17 10:23:47;;;;;;;6.30;4.05;;;35.00;99.90;;;;;;5070503;28;20665;-74
2022/05/17 10:26:19;;;;;;;9.10;4.30;;;36.10;99.90;;;;;;5070804;28;20240;-73
2022/05/17 10:28:52;;;;;;;9.23;3.58;;;35.90;99.90;;;;;;5070010;28;20201;-73
2022/05/17 10:31:24;;;;;;;8.82;4.70;;;36.10;99.90;;;;;;5071068;28;20210;-73
2022/05/17 10:34:09;;;;;;;4.22;3.17;;;31.30;99.90;;;;;;5071039;28;20266;-73
2022/05/17 10:36:42;;;;;;;9.50;3.97;;;28.70;99.90;;;;;;5070086;28;20619;-72
2022/05/17 10:39:21;;;;;;;7.50;3.47;;;28.60;99.90;;;;;;5083251;28;20736;-73
2022/05/17 10:41:49;;;;;;;7.07;3.88;;;28.40;99.90;;;;;;5090502;28;20205;-73
2022/05/17 10:44:19;;;;;;;6.00;4.22;;;28.70;99.90;;;;;;5081312;28;20197;-74
2022/05/17 10:46:54;;;;;;;6.50;3.50;;;28.60;99.90;;;;;;5077125;28;20233;-74
2022/05/17 10:49:31;;;;;;;10.00;4.10;;;28.60;99.90;;;;;;5085412;28;20265;-73
2022/05/17 10:52:08;;;;;;;6.72;3.70;;;28.80;99.90;;;;;;5085125;28;20660;-73
2022/05/17 10:54:49;;;;;;;7.72;4.15;;;28.90;99.90;;;;;;5077267;28;20212;-72
2022/05/17 10:57:26;;;;;;;6.88;4.38;;;29.00;99.90;;;;;;5070128;28;20673;-73
2022/05/17 11:00:01;;;;;;;6.32;4.10;;;29.00;99.90;;;;;;5073856;28;20204;-73
2022/05/17 11:02:55;;;;;;;13.40;4.13;;;29.00;99.90;;;;;;5083073;28;20605;-74
2022/05/17 11:05:31;;;;;;;13.85;4.15;;;28.80;99.90;;;;;;5074107;28;20210;-73
2022/05/17 11:08:08;;;;;;;6.47;3.85;;;29.10;99.90;;;;;;5070499;28;20216;-73
2022/05/17 11:10:46;;;;;;;8.23;4.47;;;29.10;99.90;;;;;;5069768;28;20210;-73
2022/05/17 11:13:22;;;;;;;9.05;3.22;;;29.20;99.90;;;;;;5083563;28;20281;-73
2022/05/17 11:15:53;;;;;;;8.00;3.58;;;28.90;99.90;;;;;;5090396;28;20262;-72
2022/05/17 11:18:28;;;;;;;7.93;3.42;;;29.20;99.90;;;;;;5090818;28;20205;-74
2022/05/17 11:21:01;;;;;;;4.78;3.28;;;29.20;99.90;;;;;;5090586;28;20209;-73
2022/05/17 11:23:45;;;;;;;7.88;3.63;;;29.40;99.90;;;;;;5089934;28;20202;-72
2022/05/17 11:26:42;;;;;;;8.30;3.58;;;29.30;99.90;;;;;;5090022;28;20230;-73
2022/05/17 11:29:27;;;;;;;6.10;4.05;;;29.50;99.90;;;;;;5073439;28;20254;-72
2022/05/17 11:31:56;;;;;;;10.15;4.18;;;29.60;99.90;;;;;;5092986;28;20209;-74
2022/05/17 11:34:43;;;;;;;8.65;4.43;;;29.60;99.90;;;;;;5094209;28;20202;-74
2022/05/17 11:37:50;;;;;;;6.95;3.42;;;29.80;99.90;;;;;;5093757;28;20543;-73
2022/05/17 11:40:50;;;;;;;10.52;3.15;;;29.50;99.90;;;;;;5093780;28;20255;-73
2022/05/17 11:46:06;;;;;;;7.90;3.75;;;29.60;99.90;;;;;;5082025;28;20229;-71
2022/05/17 11:48:53;;;;;;;4.72;3.90;;;29.60;99.90;;;;;;5072623;28;20202;-72
2022/05/17 11:51:22;;;;;;;7.53;4.00;;;29.60;99.90;;;;;;5078795;28;20209;-74
2022/05/17 11:53:51;;;;;;;9.90;3.67;;;30.00;99.90;;;;;;5083667;28;20248;-74
2022/05/17 11:56:33;;;;;;;5.68;2.70;;;30.10;99.90;;;;;;5093550;28;20288;-78
2022/05/17 11:59:02;;;;;;;4.85;2.97;;;30.00;99.90;;;;;;5082865;28;20245;-72
2022/05/17 12:01:46;;;;;;;7.93;4.22;;;30.10;99.90;;;;;;5092733;28;20205;-73
2022/05/17 12:04:39;;;;;;;6.57;3.22;;;30.30;99.90;;;;;;5093253;28;20213;-72
2022/05/17 12:07:30;;;;;;;4.47;3.55;;;30.20;99.90;;;;;;5092866;28;20308;-75
2022/05/17 12:10:09;;;;;;;7.60;3.17;;;30.00;99.90;;;;;;5088735;28;20631;-76
2022/05/17 12:12:51;;;;;;;4.72;3.25;;;29.80;99.90;;;;;;5092597;28;20699;-74
2022/05/17 12:15:45;;;;;;;6.75;4.63;;;30.00;99.90;;;;;;5093522;28;20244;-75
2022/05/17 12:18:35;;;;;;;5.22;3.65;;;30.20;99.90;;;;;;5093117;28;20213;-74
2022/05/17 12:21:26;;;;;;;8.38;3.50;;;30.40;99.90;;;;;;5091627;28;20354;-71
2022/05/17 12:24:03;;;;;;;5.90;3.72;;;30.10;99.90;;;;;;5092898;28;20262;-74
2022/05/17 12:26:45;;;;;;;9.15;3.38;;;30.10;99.90;;;;;;5085233;28;20279;-73
2022/05/17 12:31:59;;;;;;;15.23;4.43;;;30.60;99.90;;;;;;5090130;28;20569;-73
2022/05/17 12:34:26;;;;;;;7.97;3.60;;;30.20;99.90;;;;;;5092417;28;20209;-74
2022/05/17 12:37:07;;;;;;;9.32;3.05;;;30.60;99.90;;;;;;5092806;28;20278;-73
2022/05/17 12:45:12;;;;;;;5.30;3.22;;;31.10;99.90;;;;;;5092419;28;20226;-73
2022/05/17 12:47:44;;;;;;;5.68;3.83;;;31.10;99.90;;;;;;5088351;28;20235;-74
2022/05/17 12:50:17;;;;;;;6.85;3.85;;;31.10;99.90;;;;;;5084829;28;20266;-74
2022/05/17 12:52:46;;;;;;;6.03;3.20;;;31.10;99.90;;;;;;5083055;28;20281;-74
2022/05/17 12:55:21;;;;;;;4.72;3.28;;;30.90;99.90;;;;;;5091094;28;20753;-77
2022/05/17 12:57:48;;;;;;;10.48;3.53;;;30.90;99.90;;;;;;5092489;28;20197;-76
2022/05/17 13:00:18;;;;;;;6.78;3.55;;;31.00;99.90;;;;;;5085712;28;20209;-77
2022/05/17 13:02:47;;;;;;;8.05;3.50;;;31.20;99.90;;;;;;5082990;28;20274;-76
2022/05/17 13:05:26;;;;;;;4.25;3.08;;;31.00;99.90;;;;;;5075946;28;20660;-79
2022/05/17 13:08:05;;;;;;;6.53;3.45;;;30.90;99.90;;;;;;5092038;28;20319;-77
2022/05/17 13:10:34;;;;;;;6.30;2.83;;;31.20;99.90;;;;;;5089328;28;20270;-80
2022/05/17 13:13:14;;;;;;;7.30;4.00;;;31.30;99.90;;;;;;5091893;28;20201;-82
2022/05/17 13:15:43;;;;;;;8.90;4.40;;;31.20;99.90;;;;;;5091783;28;20296;-79
2022/05/17 13:18:10;;;;;;;5.88;4.20;;;31.00;99.90;;;;;;5078588;28;20205;-78
2022/05/17 13:20:38;;;;;;;4.50;3.08;;;31.00;99.90;;;;;;5091516;28;20209;-78
2022/05/17 13:23:08;;;;;;;3.83;3.42;;;31.00;99.90;;;;;;5091717;28;20201;-78
2022/05/17 13:25:42;;;;;;;6.70;3.47;;;30.50;99.90;;;;;;5088925;28;20259;-80
2022/05/17 13:28:10;;;;;;;8.10;3.42;;;30.80;99.90;;;;;;5090889;28;20225;-78